Time;durP1;ratioP1;P1;durP2;ratioP2;P2;SDS_P1;SDS_P2;PMS_P1;PMS_P2;Temp;Humidity;BMP_temperature;BMP_pressure;BME280_temperature;BME280_humidity;BME280_pressure;Samples;Min_cycle;Max_cycle;Signal;HPM_P1;HPM_P2
2023/08/29 00:00:36;;;;;;;9.77;8.88;;;;;;;23.31;49.00;92199.66;5071689;28;20234;-80
2023/08/29 00:03:03;;;;;;;9.77;8.88;;;;;;;23.22;49.16;92204.44;5069348;28;20226;-84
2023/08/29 00:05:30;;;;;;;9.88;8.98;;;;;;;23.22;49.31;92201.78;5070465;28;20228;-83
2023/08/29 00:07:55;;;;;;;9.50;8.77;;;;;;;23.29;49.93;92193.91;5081048;28;20190;-84
2023/08/29 00:10:20;;;;;;;10.85;9.88;;;;;;;23.27;51.51;92196.16;5061570;28;20219;-79
2023/08/29 00:12:46;;;;;;;11.15;10.13;;;;;;;23.24;51.85;92193.44;5069360;28;20188;-78
2023/08/29 00:15:11;;;;;;;10.52;9.63;;;;;;;23.14;52.61;92188.78;5068876;28;20219;-79
2023/08/29 00:17:37;;;;;;;10.43;9.38;;;;;;;23.05;52.91;92194.38;5081935;28;20186;-79
2023/08/29 00:20:02;;;;;;;10.15;9.43;;;;;;;22.87;54.17;92201.44;5068425;28;20188;-76
2023/08/29 00:22:28;;;;;;;9.30;8.57;;;;;;;22.74;54.48;92200.13;5069335;28;20226;-83
2023/08/29 00:24:54;;;;;;;10.15;9.27;;;;;;;22.68;55.40;92190.94;5068981;28;20244;-78
2023/08/29 00:27:20;;;;;;;10.52;9.23;;;;;;;22.64;55.30;92195.47;5068438;28;20192;-79
2023/08/29 00:29:45;;;;;;;9.27;8.50;;;;;;;22.36;56.49;92179.13;5069142;28;20204;-79
2023/08/29 00:32:11;;;;;;;9.88;9.18;;;;;;;22.30;56.47;92191.19;5066382;28;20839;-79
2023/08/29 00:34:36;;;;;;;8.73;8.13;;;;;;;22.32;56.24;92185.53;5067454;28;20732;-79
2023/08/29 00:37:02;;;;;;;10.27;9.55;;;;;;;22.30;56.55;92182.44;5068713;28;20244;-79
2023/08/29 00:39:27;;;;;;;9.55;8.65;;;;;;;22.33;56.88;92185.16;5069537;28;20199;-79
2023/08/29 00:41:53;;;;;;;10.43;9.52;;;;;;;22.19;57.36;92177.00;5081392;28;20253;-76
2023/08/29 00:44:18;;;;;;;9.50;8.70;;;;;;;22.24;54.81;92166.03;5067049;28;20175;-78
2023/08/29 00:46:45;;;;;;;10.60;9.60;;;;;;;22.18;55.20;92156.81;5068698;28;20230;-78
2023/08/29 00:49:12;;;;;;;10.05;9.15;;;;;;;22.32;56.23;92178.28;5068886;28;20203;-76
2023/08/29 00:51:38;;;;;;;9.63;8.77;;;;;;;22.17;57.04;92171.25;5060691;28;20253;-78
2023/08/29 00:54:04;;;;;;;9.25;8.55;;;;;;;22.07;57.04;92185.94;5081423;28;20184;-78
2023/08/29 00:56:30;;;;;;;9.57;8.73;;;;;;;21.98;57.74;92182.00;5068647;28;20217;-78
2023/08/29 00:58:56;;;;;;;10.23;8.95;;;;;;;21.89;58.85;92181.50;5068937;28;20198;-78
2023/08/29 01:01:21;;;;;;;10.43;9.35;;;;;;;21.82;59.58;92187.47;5068699;28;20220;-78
2023/08/29 01:03:47;;;;;;;9.82;9.02;;;;;;;21.81;59.55;92180.63;5067713;28;20198;-78
2023/08/29 01:06:13;;;;;;;10.05;9.07;;;;;;;21.63;59.82;92168.94;5080609;28;20231;-78
2023/08/29 01:08:43;;;;;;;10.02;9.30;;;;;;;21.56;60.73;92170.69;5067681;28;20179;-77
2023/08/29 01:11:34;;;;;;;10.93;10.00;;;;;;;21.36;61.29;92174.56;5070207;28;20234;-79
2023/08/29 01:14:28;;;;;;;9.80;9.10;;;;;;;21.37;61.42;92170.78;5061012;28;20211;-78
2023/08/29 01:17:06;;;;;;;12.73;9.35;;;;;;;21.29;61.03;92153.22;5059805;28;20226;-78
2023/08/29 01:19:34;;;;;;;9.93;9.27;;;;;;;21.35;61.20;92167.72;5069744;28;20190;-81
2023/08/29 01:22:25;;;;;;;9.85;9.15;;;;;;;21.28;61.85;92165.72;5061816;28;20959;-78
2023/08/29 01:25:08;;;;;;;9.57;8.88;;;;;;;21.28;61.48;92156.97;5071657;28;20177;-77
2023/08/29 01:27:34;;;;;;;10.18;9.48;;;;;;;21.35;61.08;92146.47;5071728;28;20190;-78
2023/08/29 01:30:01;;;;;;;10.68;9.77;;;;;;;21.10;61.66;92137.34;5071255;28;20213;-78
2023/08/29 01:32:27;;;;;;;10.65;9.73;;;;;;;21.09;61.60;92141.88;5072180;28;20183;-78
2023/08/29 01:34:53;;;;;;;10.75;9.95;;;;;;;21.12;62.15;92143.06;5072246;28;20197;-78
2023/08/29 01:37:19;;;;;;;10.25;9.45;;;;;;;21.17;61.94;92140.13;5072043;28;20228;-78
2023/08/29 01:39:44;;;;;;;13.38;9.40;;;;;;;21.20;61.26;92126.13;5072842;28;20176;-78
2023/08/29 01:42:10;;;;;;;9.75;8.82;;;;;;;21.13;59.44;92079.00;5071474;28;20276;-78
2023/08/29 01:44:35;;;;;;;10.35;9.45;;;;;;;21.27;60.84;92123.56;5072123;28;20237;-78
2023/08/29 01:47:00;;;;;;;10.65;9.75;;;;;;;21.41;60.00;92129.13;5071671;28;20219;-77
2023/08/29 01:49:27;;;;;;;9.50;8.80;;;;;;;21.36;60.94;92126.75;5075895;28;20219;-76
2023/08/29 01:51:52;;;;;;;9.82;9.07;;;;;;;21.44;59.36;92123.88;5076532;28;20226;-78
2023/08/29 01:54:18;;;;;;;11.50;10.40;;;;;;;21.46;59.33;92116.31;5071373;28;20212;-78
2023/08/29 01:56:45;;;;;;;9.73;9.02;;;;;;;21.59;59.46;92116.84;5070584;28;20226;-79
2023/08/29 01:59:11;;;;;;;10.85;9.75;;;;;;;21.58;58.94;92116.09;5069061;28;20190;-78
2023/08/29 02:01:38;;;;;;;11.77;9.63;;;;;;;21.28;60.64;92133.06;5066509;28;20229;-77
2023/08/29 02:04:03;;;;;;;11.30;9.90;;;;;;;21.35;60.60;92127.88;5067038;28;20245;-78
2023/08/29 02:06:29;;;;;;;9.50;8.90;;;;;;;21.46;59.88;92123.50;5067475;28;20246;-76
2023/08/29 02:08:54;;;;;;;9.98;9.00;;;;;;;21.51;59.62;92131.19;5081632;28;20223;-77
2023/08/29 02:11:20;;;;;;;10.85;9.77;;;;;;;21.67;58.48;92124.59;5071232;28;20280;-78
2023/08/29 02:13:45;;;;;;;10.25;9.25;;;;;;;21.73;58.57;92138.31;5068377;28;20183;-78
2023/08/29 02:16:10;;;;;;;10.18;9.48;;;;;;;21.66;59.16;92135.56;5071273;28;20293;-79
2023/08/29 02:18:36;;;;;;;11.25;10.35;;;;;;;21.60;60.03;92137.00;5079197;28;20178;-77
2023/08/29 02:21:01;;;;;;;10.68;9.60;;;;;;;21.61;59.22;92135.88;5071140;28;20229;-77
2023/08/29 02:23:27;;;;;;;10.57;9.77;;;;;;;21.58;59.40;92133.94;5070568;28;20196;-79
2023/08/29 02:26:02;;;;;;;10.38;9.68;;;;;;;21.52;60.42;92144.09;5064746;28;20220;-77
2023/08/29 02:28:28;;;;;;;10.55;9.70;;;;;;;21.48;60.39;92135.28;5060314;28;20174;-78
2023/08/29 02:30:54;;;;;;;10.52;8.98;;;;;;;21.53;60.47;92127.03;5077547;28;20260;-78
2023/08/29 02:33:20;;;;;;;10.55;9.55;;;;;;;21.40;60.64;92123.03;5062454;28;20189;-78
2023/08/29 02:35:45;;;;;;;11.25;10.45;;;;;;;21.25;61.27;92109.88;5060830;28;20246;-77
2023/08/29 02:38:11;;;;;;;11.60;9.98;;;;;;;21.33;61.02;92120.28;5074865;28;20196;-79
2023/08/29 02:40:36;;;;;;;11.75;10.05;;;;;;;21.30;61.66;92120.97;5081507;28;20271;-78
2023/08/29 02:43:01;;;;;;;10.65;9.75;;;;;;;21.51;59.54;92112.59;5064116;28;20192;-78
2023/08/29 02:45:27;;;;;;;11.63;10.52;;;;;;;21.52;59.82;92114.88;5058030;28;20226;-78
2023/08/29 02:47:52;;;;;;;9.98;9.07;;;;;;;21.48;59.75;92103.41;5082589;28;20184;-75
2023/08/29 02:50:17;;;;;;;10.73;9.85;;;;;;;21.56;59.92;92112.25;5071010;28;20259;-78
2023/08/29 02:52:43;;;;;;;10.15;8.75;;;;;;;21.68;59.22;92118.13;5074067;28;20189;-78
2023/08/29 02:55:09;;;;;;;10.20;9.30;;;;;;;21.69;59.31;92124.22;5066243;28;20235;-78
2023/08/29 02:57:34;;;;;;;11.23;10.23;;;;;;;21.67;59.42;92113.97;5077672;28;20189;-78
2023/08/29 02:59:59;;;;;;;10.32;9.30;;;;;;;21.74;59.28;92121.25;5069232;28;20180;-78
2023/08/29 03:02:25;;;;;;;10.75;9.02;;;;;;;21.66;59.66;92119.63;5070897;28;20177;-78
2023/08/29 03:04:50;;;;;;;10.25;9.30;;;;;;;21.73;59.37;92117.84;5070182;28;20194;-74
2023/08/29 03:07:15;;;;;;;10.18;9.27;;;;;;;21.67;59.90;92115.84;5081810;28;20185;-78
2023/08/29 03:09:41;;;;;;;10.13;9.35;;;;;;;21.58;60.57;92116.09;5069457;28;20269;-79
2023/08/29 03:12:06;;;;;;;10.60;9.60;;;;;;;21.48;61.32;92118.63;5059339;28;20224;-78
2023/08/29 03:14:32;;;;;;;10.05;9.45;;;;;;;21.34;61.85;92129.00;5076233;28;20204;-78
2023/08/29 03:16:57;;;;;;;9.57;8.98;;;;;;;21.38;61.69;92129.81;5056653;28;20232;-78
2023/08/29 03:19:22;;;;;;;10.10;9.07;;;;;;;21.40;61.96;92128.34;5070266;28;20193;-78
2023/08/29 03:21:48;;;;;;;10.40;9.57;;;;;;;21.28;62.35;92125.09;5069062;28;20225;-77
2023/08/29 03:24:14;;;;;;;11.98;9.82;;;;;;;21.21;62.87;92120.47;5069192;28;20201;-79
2023/08/29 03:26:39;;;;;;;10.48;9.57;;;;;;;21.33;62.55;92127.47;5065418;28;20216;-77
2023/08/29 03:29:04;;;;;;;11.07;10.15;;;;;;;21.08;62.63;92121.75;5064680;28;20224;-78
2023/08/29 03:31:30;;;;;;;9.95;9.23;;;;;;;21.06;62.40;92123.25;5069456;28;20226;-79
2023/08/29 03:33:55;;;;;;;10.70;9.85;;;;;;;21.02;63.25;92123.19;5069010;28;20188;-75
2023/08/29 03:36:21;;;;;;;10.85;10.15;;;;;;;20.93;63.16;92113.88;5068351;28;20246;-78
2023/08/29 03:38:46;;;;;;;13.60;10.18;;;;;;;20.82;64.00;92115.59;5070237;28;20242;-78
2023/08/29 03:41:11;;;;;;;10.98;9.98;;;;;;;20.82;64.35;92119.00;5065104;28;20219;-78
2023/08/29 03:43:37;;;;;;;11.52;10.40;;;;;;;20.68;65.21;92119.50;5069876;28;20190;-78
2023/08/29 03:46:07;;;;;;;10.13;9.43;;;;;;;20.77;64.57;92116.63;5069702;28;20296;-79
2023/08/29 03:48:34;;;;;;;11.13;10.23;;;;;;;20.96;64.00;92124.59;5069872;28;20183;-79
2023/08/29 03:51:06;;;;;;;10.80;9.95;;;;;;;20.96;63.75;92105.25;5057208;28;20230;-78
2023/08/29 03:53:38;;;;;;;11.40;10.38;;;;;;;21.03;64.14;92105.38;5069787;28;20196;-79
2023/08/29 03:56:09;;;;;;;10.13;9.38;;;;;;;20.83;64.61;92099.31;5069394;28;20216;-78
2023/08/29 03:58:35;;;;;;;10.82;9.88;;;;;;;20.90;64.36;92098.66;5068799;28;20192;-78
2023/08/29 04:01:03;;;;;;;10.60;9.60;;;;;;;21.05;64.15;92103.09;5058878;28;20227;-79
2023/08/29 04:03:30;;;;;;;10.98;9.90;;;;;;;20.95;64.63;92075.25;5066562;28;20203;-78
2023/08/29 04:05:56;;;;;;;10.60;9.70;;;;;;;21.12;64.33;92095.28;5069123;28;20278;-79
2023/08/29 04:08:21;;;;;;;12.35;9.82;;;;;;;21.16;64.20;92096.09;5070562;28;20177;-79
2023/08/29 04:10:47;;;;;;;11.35;10.05;;;;;;;21.07;64.45;92084.94;5069122;28;20250;-78
2023/08/29 04:13:12;;;;;;;10.57;9.77;;;;;;;21.14;64.63;92085.03;5061153;28;20215;-78
2023/08/29 04:15:37;;;;;;;12.10;10.88;;;;;;;21.03;64.44;92100.06;5068656;28;20317;-79
2023/08/29 04:18:04;;;;;;;11.23;10.15;;;;;;;20.75;64.81;92102.94;5074478;28;20192;-78
2023/08/29 04:20:30;;;;;;;10.90;10.07;;;;;;;21.03;63.63;92094.75;5065532;28;20235;-79
2023/08/29 04:22:55;;;;;;;11.85;11.05;;;;;;;21.27;63.87;92105.75;5068923;28;20189;-78
2023/08/29 04:25:21;;;;;;;11.00;9.90;;;;;;;21.37;63.46;92096.44;5064515;28;20257;-78
2023/08/29 04:27:48;;;;;;;11.35;10.38;;;;;;;21.50;63.37;92092.44;5065996;28;20179;-78
2023/08/29 04:30:14;;;;;;;10.93;10.15;;;;;;;21.56;63.77;92097.09;5075440;28;20265;-78
2023/08/29 04:32:40;;;;;;;11.45;10.50;;;;;;;21.59;65.31;92099.03;5080590;28;20221;-78
2023/08/29 04:35:06;;;;;;;11.43;10.52;;;;;;;21.71;64.45;92090.09;5077380;28;20186;-78
2023/08/29 04:37:35;;;;;;;10.45;9.55;;;;;;;21.90;62.05;92093.41;5062927;28;20294;-80
2023/08/29 04:40:06;;;;;;;11.90;10.73;;;;;;;21.81;63.99;92100.13;5057835;28;20245;-80
2023/08/29 04:42:31;;;;;;;12.18;11.07;;;;;;;21.87;64.52;92098.69;5063228;28;20248;-77
2023/08/29 04:44:57;;;;;;;11.73;10.73;;;;;;;21.93;64.55;92094.59;5065481;28;20636;-74
2023/08/29 04:47:22;;;;;;;10.90;9.80;;;;;;;21.77;62.76;92096.66;5073412;28;20195;-78
2023/08/29 04:49:48;;;;;;;11.45;10.38;;;;;;;21.96;63.52;92102.59;5084546;28;20651;-77
2023/08/29 04:52:13;;;;;;;12.45;11.38;;;;;;;21.40;63.24;92109.00;5066905;28;21103;-76
2023/08/29 04:54:39;;;;;;;11.45;10.35;;;;;;;21.43;61.78;92110.94;5061991;28;20208;-78
2023/08/29 04:57:05;;;;;;;12.13;10.80;;;;;;;21.66;61.56;92106.34;5063579;28;20228;-76
2023/08/29 04:59:30;;;;;;;10.93;10.05;;;;;;;21.96;60.73;92105.25;5053633;28;20180;-77
2023/08/29 05:01:56;;;;;;;11.07;10.30;;;;;;;22.08;60.38;92098.97;5061544;28;20221;-76
2023/08/29 05:04:21;;;;;;;15.02;10.77;;;;;;;22.44;59.86;92084.97;5061491;28;20194;-78
2023/08/29 05:06:47;;;;;;;12.40;10.95;;;;;;;22.80;59.15;92102.84;5082598;28;20230;-79
2023/08/29 05:09:12;;;;;;;11.27;10.02;;;;;;;22.80;61.45;92094.84;5072803;28;20245;-78
2023/08/29 05:11:38;;;;;;;11.55;9.35;;;;;;;22.69;59.80;92088.69;5071788;28;20271;-77
2023/08/29 05:14:03;;;;;;;11.50;10.35;;;;;;;22.96;58.41;92095.41;5069838;28;20191;-78
2023/08/29 05:16:29;;;;;;;10.23;9.35;;;;;;;22.98;58.64;92087.03;5071030;28;20229;-79
2023/08/29 05:18:54;;;;;;;11.05;10.20;;;;;;;23.03;58.97;92082.16;5071841;28;20196;-78
2023/08/29 05:21:19;;;;;;;11.18;9.38;;;;;;;23.29;58.67;92087.34;5065075;28;20299;-78
2023/08/29 05:23:45;;;;;;;10.07;9.15;;;;;;;23.48;57.77;92078.34;5058661;28;20222;-77
2023/08/29 05:26:10;;;;;;;11.63;10.40;;;;;;;23.53;56.39;92064.69;5059826;28;20221;-75
2023/08/29 05:28:36;;;;;;;10.20;9.27;;;;;;;23.82;55.64;92066.38;5064874;28;20198;-79
2023/08/29 05:31:01;;;;;;;10.90;10.00;;;;;;;24.31;52.58;92076.56;5062820;28;20223;-76
2023/08/29 05:33:26;;;;;;;9.63;8.82;;;;;;;24.65;51.58;92075.13;5063557;28;20213;-78
2023/08/29 05:35:52;;;;;;;10.15;9.45;;;;;;;24.58;51.28;92075.09;5066905;28;20239;-77
2023/08/29 05:38:17;;;;;;;10.05;9.25;;;;;;;24.65;51.59;92070.56;5057178;28;20203;-78
2023/08/29 05:40:42;;;;;;;10.60;9.70;;;;;;;24.61;51.82;92077.03;5060759;28;20772;-75
2023/08/29 05:43:08;;;;;;;10.38;9.60;;;;;;;24.63;52.01;92078.19;5064445;28;20210;-75
2023/08/29 05:45:33;;;;;;;11.35;10.30;;;;;;;24.51;52.09;92080.44;5068532;28;20243;-79
2023/08/29 05:47:59;;;;;;;10.95;9.18;;;;;;;24.25;52.47;92078.81;5062799;28;20177;-78
2023/08/29 05:50:24;;;;;;;10.40;9.40;;;;;;;24.18;52.35;92073.44;5064217;28;20236;-81
2023/08/29 05:52:50;;;;;;;12.07;9.45;;;;;;;24.45;51.99;92076.59;5052373;28;20187;-84
2023/08/29 05:55:15;;;;;;;10.15;9.23;;;;;;;24.56;52.12;92078.16;5066059;28;20222;-79
2023/08/29 05:57:40;;;;;;;11.20;10.20;;;;;;;24.53;52.86;92094.94;5054472;28;20929;-83
2023/08/29 06:00:11;;;;;;;11.00;10.10;;;;;;;24.77;53.31;92077.47;5066138;28;20196;-83
2023/08/29 06:02:37;;;;;;;11.07;9.35;;;;;;;26.82;47.33;92097.53;5052733;28;20194;-83
2023/08/29 06:05:06;;;;;;;13.13;11.73;;;;;;;28.80;41.91;92103.47;5066300;28;20180;-82
2023/08/29 06:07:31;;;;;;;11.82;9.65;;;;;;;27.44;44.29;92101.72;5058889;28;20196;-85
2023/08/29 06:09:57;;;;;;;10.43;9.68;;;;;;;26.72;44.72;92099.84;5068944;28;20249;-83
2023/08/29 06:12:22;;;;;;;11.60;9.95;;;;;;;26.27;45.90;92098.09;5067973;28;20219;-88
2023/08/29 06:14:48;;;;;;;11.18;10.32;;;;;;;25.91;47.33;92096.63;5064141;28;20203;-88
2023/08/29 06:17:13;;;;;;;10.48;9.48;;;;;;;25.55;49.51;92089.78;5059994;28;20287;-87
2023/08/29 06:19:38;;;;;;;11.13;9.95;;;;;;;26.07;48.24;92105.03;5057433;28;20194;-84
2023/08/29 06:22:04;;;;;;;10.93;9.90;;;;;;;25.71;49.06;92097.44;5062525;28;20289;-80
2023/08/29 06:24:29;;;;;;;12.82;11.55;;;;;;;25.40;51.22;92093.63;5055490;28;20197;-79
2023/08/29 06:26:54;;;;;;;10.93;9.93;;;;;;;25.79;50.66;92089.00;5056674;28;20220;-80
2023/08/29 06:29:20;;;;;;;14.35;11.45;;;;;;;25.93;50.98;92105.03;5057567;28;20269;-79
2023/08/29 06:31:45;;;;;;;12.35;10.82;;;;;;;25.74;49.66;92102.78;5056552;28;20226;-81
2023/08/29 06:34:10;;;;;;;12.43;10.10;;;;;;;25.31;50.34;92113.84;5063988;28;20252;-81
2023/08/29 06:36:36;;;;;;;9.90;9.15;;;;;;;26.28;48.05;92113.00;5056560;28;20240;-80
2023/08/29 06:39:02;;;;;;;11.73;10.23;;;;;;;26.09;49.31;92110.75;5060696;28;20284;-82
2023/08/29 06:41:27;;;;;;;11.52;10.60;;;;;;;26.25;46.55;92116.47;5068597;28;20222;-80
2023/08/29 06:43:52;;;;;;;10.93;9.93;;;;;;;25.67;48.67;92104.66;5056796;28;20253;-80
2023/08/29 06:46:18;;;;;;;10.65;9.75;;;;;;;25.62;48.42;92111.16;5061801;28;20256;-79
2023/08/29 06:48:43;;;;;;;10.02;9.00;;;;;;;25.41;49.75;92111.19;5062856;28;20188;-77
2023/08/29 06:51:09;;;;;;;12.63;11.57;;;;;;;25.66;47.82;92106.59;5073926;28;20247;-78
2023/08/29 06:53:35;;;;;;;11.05;10.13;;;;;;;25.99;47.80;92098.19;5053471;28;20847;-78
2023/08/29 06:56:00;;;;;;;10.50;9.80;;;;;;;26.46;46.85;92100.31;5066585;28;20239;-78
2023/08/29 06:58:26;;;;;;;10.85;9.90;;;;;;;26.52;46.56;92103.38;5060063;28;20199;-79
2023/08/29 07:00:54;;;;;;;10.75;9.18;;;;;;;26.47;45.99;92101.84;5050951;28;21133;-78
2023/08/29 07:03:19;;;;;;;11.82;10.70;;;;;;;26.25;46.10;92095.06;5058043;28;20205;-79
2023/08/29 07:05:45;;;;;;;9.77;8.98;;;;;;;26.17;46.38;92096.22;5059581;28;20270;-82
2023/08/29 07:08:10;;;;;;;11.82;10.65;;;;;;;26.04;46.63;92105.06;5062643;28;20188;-79
2023/08/29 07:10:36;;;;;;;10.30;9.30;;;;;;;26.15;46.37;92106.53;5063295;28;20280;-79
2023/08/29 07:13:01;;;;;;;11.27;10.13;;;;;;;25.93;46.39;92094.31;5060535;28;20188;-79
2023/08/29 07:15:27;;;;;;;11.30;10.45;;;;;;;25.88;46.83;92092.06;5060820;28;20225;-80
2023/08/29 07:17:53;;;;;;;10.98;10.07;;;;;;;26.43;46.37;92114.47;5056642;28;20214;-77
2023/08/29 07:20:19;;;;;;;11.05;10.10;;;;;;;26.58;46.20;92129.34;5068962;28;20252;-79
2023/08/29 07:22:45;;;;;;;11.55;10.55;;;;;;;26.53;45.07;92116.38;5068353;28;20197;-80
2023/08/29 07:25:11;;;;;;;10.60;9.80;;;;;;;26.37;45.44;92117.94;5066072;28;20225;-81
2023/08/29 07:27:37;;;;;;;13.88;10.38;;;;;;;26.41;45.98;92124.06;5066399;28;20185;-78
2023/08/29 07:30:03;;;;;;;10.25;9.35;;;;;;;26.65;46.65;92131.25;5064320;28;20236;-79
2023/08/29 07:32:30;;;;;;;11.15;9.98;;;;;;;26.95;44.95;92120.03;5066541;28;20189;-82
2023/08/29 07:34:56;;;;;;;10.68;9.98;;;;;;;26.98;45.33;92124.59;5066978;28;20173;-80
2023/08/29 07:37:22;;;;;;;11.45;10.48;;;;;;;26.69;45.28;92122.06;5053728;28;20233;-81
2023/08/29 07:39:47;;;;;;;10.40;9.50;;;;;;;26.62;46.73;92129.31;5063620;28;20205;-82
2023/08/29 07:42:13;;;;;;;13.88;10.05;;;;;;;27.00;45.41;92127.66;5056969;28;20232;-81
2023/08/29 07:44:38;;;;;;;9.82;9.13;;;;;;;26.85;45.54;92126.94;5064914;28;20189;-82
2023/08/29 07:47:04;;;;;;;12.25;10.07;;;;;;;26.69;45.81;92124.00;5066588;28;20233;-81
2023/08/29 07:49:29;;;;;;;10.40;9.48;;;;;;;26.77;45.28;92120.88;5062568;28;20311;-81
2023/08/29 07:51:55;;;;;;;10.27;9.57;;;;;;;26.86;44.20;92114.34;5064715;28;20217;-82
2023/08/29 07:54:21;;;;;;;10.50;9.60;;;;;;;26.92;45.26;92120.81;5050818;28;20213;-81
2023/08/29 07:56:46;;;;;;;11.45;10.35;;;;;;;26.70;46.53;92126.28;5051637;28;20229;-81
2023/08/29 07:59:12;;;;;;;10.43;9.60;;;;;;;26.51;46.52;92124.03;5069298;28;20197;-81
2023/08/29 08:01:37;;;;;;;10.95;10.02;;;;;;;26.79;45.44;92125.84;5057250;28;20259;-81
2023/08/29 08:04:03;;;;;;;12.05;9.18;;;;;;;27.05;44.63;92127.25;5057067;28;20205;-77
2023/08/29 08:06:29;;;;;;;12.50;9.77;;;;;;;27.07;44.21;92108.88;5050055;28;20214;-78
2023/08/29 08:08:54;;;;;;;13.13;9.45;;;;;;;26.98;45.43;92124.59;5057650;28;20178;-78
2023/08/29 08:11:20;;;;;;;10.98;9.98;;;;;;;27.24;44.67;92121.41;5061169;28;20217;-76
2023/08/29 08:13:46;;;;;;;10.10;9.25;;;;;;;27.31;44.40;92121.38;5055272;28;20195;-79
2023/08/29 08:16:11;;;;;;;11.07;10.18;;;;;;;27.32;44.81;92118.28;5060716;28;20289;-83
2023/08/29 08:18:36;;;;;;;10.07;9.32;;;;;;;26.82;44.59;92116.28;5056841;28;20205;-84
2023/08/29 08:21:02;;;;;;;10.80;9.57;;;;;;;26.70;46.52;92115.56;5067867;28;20227;-83
2023/08/29 08:23:28;;;;;;;11.85;10.77;;;;;;;26.32;46.22;92097.69;5062508;28;20201;-81
2023/08/29 08:25:53;;;;;;;12.05;10.23;;;;;;;26.82;45.72;92110.91;5057671;28;20259;-84
2023/08/29 08:28:19;;;;;;;10.68;9.77;;;;;;;27.37;45.09;92099.09;5057457;28;20224;-86
2023/08/29 08:30:44;;;;;;;11.52;10.07;;;;;;;27.69;43.54;92101.56;5053313;28;20225;-86
2023/08/29 08:33:09;;;;;;;11.35;10.38;;;;;;;27.82;43.49;92097.19;5058433;28;20196;-81
2023/08/29 08:35:35;;;;;;;11.27;10.38;;;;;;;27.93;43.73;92097.91;5054230;28;20220;-82
2023/08/29 08:38:00;;;;;;;12.13;9.70;;;;;;;27.84;43.76;92084.16;5057960;28;20196;-79
2023/08/29 08:40:25;;;;;;;10.77;8.82;;;;;;;28.18;41.72;92093.03;5056613;28;20257;-80
2023/08/29 08:42:51;;;;;;;10.27;9.35;;;;;;;28.34;41.49;92095.19;5058246;28;20189;-79
2023/08/29 08:45:17;;;;;;;11.52;10.40;;;;;;;28.32;40.79;92100.94;5067358;28;21016;-82
2023/08/29 08:47:43;;;;;;;13.35;12.07;;;;;;;27.95;41.88;92090.22;5062105;28;20215;-80
2023/08/29 08:50:09;;;;;;;10.43;9.55;;;;;;;27.65;42.97;92082.78;5057258;28;20306;-81
2023/08/29 08:52:35;;;;;;;14.80;10.35;;;;;;;27.52;42.98;92094.41;5052915;28;20197;-85
2023/08/29 08:55:01;;;;;;;11.02;9.95;;;;;;;27.24;44.50;92089.22;5053893;28;20886;-84
2023/08/29 08:57:27;;;;;;;12.50;10.05;;;;;;;26.88;45.28;92087.91;5059240;28;20244;-83
2023/08/29 08:59:53;;;;;;;10.38;9.48;;;;;;;27.12;44.01;92093.13;5059073;28;20216;-82
2023/08/29 09:02:19;;;;;;;11.55;10.55;;;;;;;27.77;42.48;92094.94;5060022;28;20236;-83
2023/08/29 09:04:44;;;;;;;10.05;9.15;;;;;;;27.58;43.99;92092.81;5059048;28;20182;-80
2023/08/29 09:07:10;;;;;;;13.73;9.85;;;;;;;27.89;42.68;92097.19;5058115;28;20221;-86
2023/08/29 09:09:35;;;;;;;11.75;10.55;;;;;;;27.73;42.72;92099.59;5049702;28;20206;-85
2023/08/29 09:12:01;;;;;;;13.48;9.98;;;;;;;27.61;43.34;92092.03;5051256;28;20218;-85
2023/08/29 09:14:26;;;;;;;11.27;10.18;;;;;;;27.95;42.55;92095.59;5060834;28;20190;-84
2023/08/29 09:17:04;;;;;;;11.30;9.75;;;;;;;28.05;41.33;92092.03;5052735;28;20226;-82
2023/08/29 09:19:33;;;;;;;11.48;9.52;;;;;;;28.93;39.93;92083.75;5049226;28;20186;-87
2023/08/29 09:21:58;;;;;;;10.90;9.90;;;;;;;28.67;41.62;92083.69;5059777;28;20230;-86
2023/08/29 09:24:36;;;;;;;10.80;9.90;;;;;;;29.21;41.92;92085.28;5062274;28;20193;-86
2023/08/29 09:27:08;;;;;;;11.70;9.10;;;;;;;29.16;40.10;92080.38;5057451;28;20217;-85
2023/08/29 09:29:34;;;;;;;11.25;10.23;;;;;;;28.49;40.91;92075.84;5064073;28;20206;-85
2023/08/29 09:31:59;;;;;;;10.73;9.63;;;;;;;28.14;42.00;92076.22;5063177;28;20231;-85
2023/08/29 09:34:31;;;;;;;10.15;9.27;;;;;;;28.09;41.37;92082.03;5059861;28;20203;-85
2023/08/29 09:36:58;;;;;;;11.57;9.73;;;;;;;28.72;39.75;92084.00;5061088;28;20229;-80
2023/08/29 09:39:24;;;;;;;15.43;9.82;;;;;;;28.37;40.82;92084.41;5065939;28;20201;-81
2023/08/29 09:42:06;;;;;;;10.13;9.32;;;;;;;28.31;41.26;92080.63;5071266;28;20226;-81
2023/08/29 09:44:36;;;;;;;10.15;9.25;;;;;;;27.52;41.89;92086.38;5062068;28;20294;-88
2023/08/29 09:47:06;;;;;;;16.20;10.25;;;;;;;27.20;44.04;92093.84;5058920;28;20214;-85
2023/08/29 09:49:44;;;;;;;11.57;10.38;;;;;;;27.46;44.25;92094.06;5069252;28;20217;-85
2023/08/29 09:52:10;;;;;;;10.85;9.85;;;;;;;27.25;46.27;92085.38;5058683;28;20248;-85
2023/08/29 09:54:49;;;;;;;10.77;9.77;;;;;;;27.19;43.73;92090.38;5059783;28;20186;-84
2023/08/29 09:57:19;;;;;;;12.43;9.88;;;;;;;27.10;44.13;92090.06;5070060;28;20213;-76
2023/08/29 09:59:46;;;;;;;13.70;10.45;;;;;;;27.16;44.37;92085.06;5066886;28;20201;-84
2023/08/29 10:02:13;;;;;;;13.80;10.85;;;;;;;27.43;45.77;92092.16;5056284;28;20257;-82
2023/08/29 10:04:44;;;;;;;11.68;10.48;;;;;;;28.05;45.04;92084.75;5074306;28;20222;-78
2023/08/29 10:07:14;;;;;;;12.45;10.80;;;;;;;28.29;45.21;92077.59;5057944;28;20297;-80
2023/08/29 10:09:42;;;;;;;10.45;9.43;;;;;;;28.24;42.51;92078.03;5051756;28;20209;-79
2023/08/29 10:12:08;;;;;;;10.73;9.75;;;;;;;28.37;42.31;92073.66;5063784;28;20252;-82
2023/08/29 10:14:34;;;;;;;11.05;9.90;;;;;;;28.74;39.86;92070.16;5057857;28;20177;-83
2023/08/29 10:17:01;;;;;;;11.40;10.02;;;;;;;28.55;40.92;92054.66;5065732;28;20245;-88
2023/08/29 10:19:29;;;;;;;10.70;9.70;;;;;;;27.88;42.28;92055.38;5053902;28;20241;-86
2023/08/29 10:21:55;;;;;;;10.15;9.35;;;;;;;27.96;43.27;92064.91;5057216;28;20300;-86
2023/08/29 10:24:22;;;;;;;11.50;10.27;;;;;;;28.12;42.25;92068.56;5069286;28;20186;-86
2023/08/29 10:26:49;;;;;;;9.68;8.88;;;;;;;28.11;41.64;92063.59;5064085;28;20260;-83
2023/08/29 10:29:16;;;;;;;10.80;9.88;;;;;;;28.23;41.35;92057.72;5055659;28;20239;-81
2023/08/29 10:31:45;;;;;;;11.40;9.90;;;;;;;28.81;40.49;92057.38;5055468;28;20222;-91
2023/08/29 10:34:12;;;;;;;10.70;9.75;;;;;;;29.23;40.74;92056.81;5067403;28;20200;-90
2023/08/29 10:36:39;;;;;;;10.77;9.88;;;;;;;29.52;39.33;92065.97;5059799;28;20268;-89
2023/08/29 10:39:09;;;;;;;11.18;10.07;;;;;;;29.25;41.04;92056.41;5066072;28;20180;-89
2023/08/29 10:41:47;;;;;;;10.57;9.57;;;;;;;29.45;41.22;92052.63;5069180;28;20274;-88
2023/08/29 10:44:31;;;;;;;10.60;9.60;;;;;;;29.40;43.07;92058.47;5053912;28;20211;-87
2023/08/29 10:47:31;;;;;;;10.23;9.38;;;;;;;29.31;40.86;92060.91;5074981;28;20220;-84
2023/08/29 10:50:21;;;;;;;9.98;9.20;;;;;;;28.94;42.56;92058.38;5064188;28;20211;-85
2023/08/29 10:52:47;;;;;;;10.27;9.30;;;;;;;28.87;41.95;92063.09;5052860;28;20951;-80
2023/08/29 10:55:22;;;;;;;10.27;9.18;;;;;;;28.65;42.58;92059.91;5060884;28;20221;-85
2023/08/29 10:57:48;;;;;;;12.95;9.13;;;;;;;28.76;42.66;92057.84;5061943;28;20190;-86
2023/08/29 11:00:17;;;;;;;10.73;9.60;;;;;;;28.78;42.59;92060.16;5063249;28;20310;-85
2023/08/29 11:02:43;;;;;;;9.90;9.00;;;;;;;28.79;42.01;92062.44;5063481;28;20189;-82
2023/08/29 11:05:10;;;;;;;9.75;9.05;;;;;;;28.79;41.98;92051.69;5053829;28;20197;-85
2023/08/29 11:07:35;;;;;;;9.90;9.10;;;;;;;28.72;42.48;92041.00;5058627;28;20256;-85
2023/08/29 11:10:20;;;;;;;10.52;9.57;;;;;;;28.84;41.95;92034.34;5051974;28;20256;-87
2023/08/29 11:13:21;;;;;;;9.75;9.05;;;;;;;28.59;42.35;92026.63;5057028;28;20192;-88
2023/08/29 11:15:49;;;;;;;11.50;9.88;;;;;;;28.52;42.25;92025.91;5018395;28;20389;-89
2023/08/29 11:18:41;;;;;;;12.10;10.05;;;;;;;28.50;42.59;92033.63;5048970;28;20206;-88
2023/08/29 11:21:08;;;;;;;10.80;9.80;;;;;;;28.56;43.72;92032.78;5068401;28;20237;-90
2023/08/29 11:23:38;;;;;;;10.18;9.27;;;;;;;28.31;45.40;92037.69;5058105;28;20174;-87